Time;durP1;ratioP1;P1;durP2;ratioP2;P2;SDS_P1;SDS_P2;PMS_P1;PMS_P2;Temp;Humidity;BMP_temperature;BMP_pressure;BME280_temperature;BME280_humidity;BME280_pressure;Samples;Min_cycle;Max_cycle;Signal;HPM_P1;HPM_P2
2023/11/30 00:00:14;;;;;;;3.47;2.15;;;;;;;1.77;85.12;99539.28;4980992;28;20117;-74
2023/11/30 00:02:39;;;;;;;1.10;1.10;;;;;;;1.84;84.90;99545.59;4960566;28;20121;-72
2023/11/30 00:05:08;;;;;;;1.95;1.50;;;;;;;1.78;84.89;99552.22;4985927;28;20537;-72
2023/11/30 00:07:34;;;;;;;3.75;1.55;;;;;;;1.80;85.08;99551.91;4962708;28;20041;-73
2023/11/30 00:10:00;;;;;;;4.57;2.15;;;;;;;1.80;85.33;99554.56;4961076;28;20042;-73
2023/11/30 00:12:25;;;;;;;5.00;1.67;;;;;;;1.66;85.60;99562.00;4979940;28;20413;-73
2023/11/30 00:14:50;;;;;;;4.32;2.40;;;;;;;1.71;85.85;99557.25;4961396;28;20046;-73
2023/11/30 00:17:16;;;;;;;2.42;1.88;;;;;;;1.61;85.11;99568.25;4977967;28;20473;-73
2023/11/30 00:19:41;;;;;;;2.58;1.85;;;;;;;1.53;85.32;99561.13;4961737;28;20546;-73
2023/11/30 00:22:07;;;;;;;6.10;1.85;;;;;;;1.62;86.01;99563.72;4963634;28;20125;-72
2023/11/30 00:24:32;;;;;;;2.28;1.17;;;;;;;1.58;85.29;99560.94;4962672;28;20041;-73
2023/11/30 00:26:58;;;;;;;6.03;2.40;;;;;;;1.66;86.07;99560.13;4958708;28;20137;-73
2023/11/30 00:29:23;;;;;;;1.98;1.88;;;;;;;1.69;85.31;99559.47;4977292;28;20525;-73
2023/11/30 00:31:48;;;;;;;1.73;1.63;;;;;;;1.61;85.39;99560.28;4961352;28;20043;-73
2023/11/30 00:34:14;;;;;;;2.08;1.10;;;;;;;1.51;85.42;99558.00;4958573;28;20085;-73
2023/11/30 00:36:39;;;;;;;1.30;1.23;;;;;;;1.42;86.34;99554.63;4959377;28;20031;-72
2023/11/30 00:39:05;;;;;;;2.17;1.23;;;;;;;1.43;86.46;99560.72;4956586;28;20038;-72
2023/11/30 00:41:31;;;;;;;2.30;1.60;;;;;;;1.56;86.35;99560.50;4973479;28;20081;-73
2023/11/30 00:43:57;;;;;;;2.95;1.98;;;;;;;1.67;86.35;99558.22;4957871;28;20791;-73
2023/11/30 00:46:22;;;;;;;3.75;2.53;;;;;;;1.56;85.50;99568.44;4941445;28;20034;-73
2023/11/30 00:48:47;;;;;;;3.25;1.58;;;;;;;1.65;86.34;99571.03;4975353;28;20046;-73
2023/11/30 00:51:13;;;;;;;4.50;2.72;;;;;;;1.66;86.14;99570.72;4941586;28;20609;-72
2023/11/30 00:53:39;;;;;;;4.75;2.88;;;;;;;1.72;85.79;99563.34;4952319;28;20038;-73
2023/11/30 00:56:05;;;;;;;4.35;2.42;;;;;;;1.78;85.49;99570.78;4947985;28;20485;-72
2023/11/30 00:58:31;;;;;;;3.08;2.05;;;;;;;1.79;85.56;99567.03;4972717;28;20419;-73
2023/11/30 01:00:58;;;;;;;2.67;2.22;;;;;;;1.74;85.71;99571.78;4975812;28;20104;-73
2023/11/30 01:03:24;;;;;;;1.60;1.50;;;;;;;1.76;85.73;99566.91;4973776;28;20109;-73
2023/11/30 01:05:50;;;;;;;2.65;1.63;;;;;;;1.71;85.37;99573.19;4973711;28;20038;-72
2023/11/30 01:08:16;;;;;;;1.70;1.60;;;;;;;1.71;85.76;99572.41;4957733;28;20038;-73
2023/11/30 01:10:42;;;;;;;3.13;2.13;;;;;;;1.75;86.04;99579.41;4940814;28;20027;-73
2023/11/30 01:13:08;;;;;;;2.92;1.98;;;;;;;1.82;85.62;99579.66;4957152;28;20027;-73
2023/11/30 01:15:33;;;;;;;2.33;1.98;;;;;;;1.84;85.39;99584.63;4960412;28;20046;-73
2023/11/30 01:17:59;;;;;;;2.17;1.98;;;;;;;1.76;85.67;99575.63;4975019;28;20034;-71
2023/11/30 01:20:24;;;;;;;4.47;2.25;;;;;;;1.84;85.90;99589.94;4958228;28;20039;-73
2023/11/30 01:22:53;;;;;;;1.55;1.42;;;;;;;1.85;85.69;99588.84;4953777;28;20532;-73
2023/11/30 01:25:18;;;;;;;2.20;1.88;;;;;;;1.91;85.44;99592.09;4957469;28;20038;-73
2023/11/30 01:27:44;;;;;;;1.10;0.98;;;;;;;1.89;85.33;99583.66;4956705;28;20457;-72
2023/11/30 01:30:10;;;;;;;3.55;2.13;;;;;;;1.86;85.39;99601.00;4958306;28;20037;-73
2023/11/30 01:32:35;;;;;;;3.28;2.30;;;;;;;1.87;85.54;99591.19;4956988;28;20038;-72
2023/11/30 01:35:01;;;;;;;4.13;2.22;;;;;;;1.84;85.85;99595.25;4956420;28;20023;-73
2023/11/30 01:37:27;;;;;;;2.20;1.92;;;;;;;1.68;86.11;99595.03;4972800;28;20493;-73
2023/11/30 01:39:52;;;;;;;1.60;1.50;;;;;;;1.77;86.28;99593.13;4951878;28;20447;-73
2023/11/30 01:42:17;;;;;;;3.78;2.90;;;;;;;1.83;86.20;99586.53;4940188;28;20034;-73
2023/11/30 01:44:43;;;;;;;1.90;1.77;;;;;;;1.87;85.90;99586.66;4955371;28;20043;-73
2023/11/30 01:47:08;;;;;;;3.00;2.22;;;;;;;1.87;85.76;99584.00;4976130;28;20066;-73
2023/11/30 01:49:34;;;;;;;3.30;2.90;;;;;;;1.86;85.77;99577.13;4958104;28;20049;-73
2023/11/30 01:52:01;;;;;;;2.42;1.73;;;;;;;1.84;85.85;99577.44;4958646;28;20030;-73
2023/11/30 01:54:28;;;;;;;3.33;2.25;;;;;;;1.92;85.09;99577.72;4976742;28;20084;-73
2023/11/30 01:56:54;;;;;;;5.53;1.65;;;;;;;1.89;85.41;99573.84;4974288;28;20030;-73
2023/11/30 01:59:21;;;;;;;2.38;1.90;;;;;;;1.92;84.66;99583.78;4962864;28;20089;-73
2023/11/30 02:01:47;;;;;;;6.72;1.98;;;;;;;1.89;84.80;99573.06;4961255;28;20042;-73
2023/11/30 02:04:15;;;;;;;2.20;1.98;;;;;;;1.80;85.41;99586.41;4965415;28;20126;-73
2023/11/30 02:06:46;;;;;;;3.28;2.17;;;;;;;1.80;85.83;99576.53;4945848;28;20030;-73
2023/11/30 02:09:12;;;;;;;2.35;1.33;;;;;;;1.83;86.30;99585.75;4957527;28;20427;-73
2023/11/30 02:11:41;;;;;;;1.67;1.42;;;;;;;1.82;85.75;99573.56;4973479;28;20030;-73
2023/11/30 02:14:10;;;;;;;3.55;2.13;;;;;;;1.82;86.45;99574.34;4983237;28;20046;-73
2023/11/30 02:16:36;;;;;;;2.17;1.17;;;;;;;1.84;86.78;99566.84;4938567;28;20026;-73
2023/11/30 02:19:01;;;;;;;1.83;1.60;;;;;;;1.86;86.08;99568.41;4959308;28;20027;-73
2023/11/30 02:21:27;;;;;;;1.33;1.15;;;;;;;1.91;86.23;99565.56;4962378;28;20027;-73
2023/11/30 02:23:52;;;;;;;2.80;2.58;;;;;;;1.87;85.93;99559.34;4972672;28;20042;-73
2023/11/30 02:26:20;;;;;;;1.48;1.38;;;;;;;1.84;86.35;99560.75;4944078;28;20038;-73
2023/11/30 02:28:45;;;;;;;1.83;1.63;;;;;;;1.88;86.38;99563.56;4951886;28;20487;-72
2023/11/30 02:31:12;;;;;;;1.75;1.55;;;;;;;1.84;86.33;99556.22;4958992;28;20121;-73
2023/11/30 02:33:37;;;;;;;2.70;1.40;;;;;;;1.83;86.17;99549.38;4973403;28;20101;-73
2023/11/30 02:36:03;;;;;;;4.97;2.05;;;;;;;1.78;86.97;99554.88;4954036;28;20093;-73
2023/11/30 02:38:29;;;;;;;6.72;2.10;;;;;;;1.80;87.08;99555.31;4957423;28;20034;-73
2023/11/30 02:40:54;;;;;;;2.63;2.05;;;;;;;1.69;86.86;99550.72;4953340;28;20568;-73
2023/11/30 02:43:20;;;;;;;2.92;1.90;;;;;;;1.67;87.21;99551.06;4964362;28;20117;-73
2023/11/30 02:45:45;;;;;;;2.97;2.13;;;;;;;1.79;87.02;99556.44;4956002;28;20030;-73
2023/11/30 02:48:11;;;;;;;4.63;1.52;;;;;;;1.88;86.36;99556.34;4956178;28;20409;-73
2023/11/30 02:50:39;;;;;;;1.85;1.73;;;;;;;1.85;85.85;99557.00;4979374;28;20457;-73
2023/11/30 02:53:05;;;;;;;2.38;1.77;;;;;;;1.84;86.50;99556.22;4976645;28;20506;-73
2023/11/30 02:55:30;;;;;;;5.38;3.38;;;;;;;1.84;86.34;99556.22;4959850;28;20092;-73
2023/11/30 02:57:55;;;;;;;1.38;1.27;;;;;;;1.87;86.86;99554.03;4957990;28;20046;-73
2023/11/30 03:00:21;;;;;;;3.88;2.50;;;;;;;1.86;86.30;99557.78;4944023;28;20043;-73
2023/11/30 03:02:46;;;;;;;5.40;2.45;;;;;;;1.93;85.83;99558.03;4956215;28;20125;-73
2023/11/30 03:05:12;;;;;;;2.05;1.80;;;;;;;1.92;85.98;99556.50;4975476;28;20386;-73
2023/11/30 03:07:37;;;;;;;3.03;2.05;;;;;;;1.89;86.02;99562.44;4958597;28;20031;-73
2023/11/30 03:10:03;;;;;;;1.77;1.67;;;;;;;1.84;86.42;99561.53;4964953;28;20049;-73
2023/11/30 03:12:29;;;;;;;2.63;1.63;;;;;;;2.06;85.40;99563.09;4959317;28;20441;-73
2023/11/30 03:14:54;;;;;;;1.85;1.73;;;;;;;2.06;84.77;99557.00;4976609;28;20153;-73
2023/11/30 03:17:20;;;;;;;1.63;1.52;;;;;;;1.96;85.29;99555.50;4964001;28;20041;-73
2023/11/30 03:19:47;;;;;;;6.60;1.98;;;;;;;1.88;85.85;99553.69;4977990;28;20037;-73
2023/11/30 03:22:14;;;;;;;4.47;2.30;;;;;;;1.83;86.69;99553.91;4963255;28;20030;-73
2023/11/30 03:24:40;;;;;;;2.40;1.55;;;;;;;1.82;86.47;99547.81;4980863;28;20046;-73
2023/11/30 03:27:05;;;;;;;1.20;1.10;;;;;;;1.74;86.26;99551.31;4962836;28;20034;-71
2023/11/30 03:29:31;;;;;;;1.77;1.25;;;;;;;1.70;86.23;99563.66;4961839;28;20015;-73
2023/11/30 03:31:56;;;;;;;6.30;2.58;;;;;;;1.59;86.99;99559.06;4961514;28;20042;-73
2023/11/30 03:34:25;;;;;;;1.45;1.33;;;;;;;1.65;87.07;99553.25;4964582;28;20054;-74
2023/11/30 03:36:50;;;;;;;5.43;2.03;;;;;;;1.62;86.95;99553.91;4961388;28;20124;-73
2023/11/30 03:39:15;;;;;;;2.83;1.83;;;;;;;1.62;86.68;99548.59;4977751;28;20462;-73
2023/11/30 03:41:41;;;;;;;1.38;1.10;;;;;;;1.64;86.94;99546.41;4951713;28;20120;-73
2023/11/30 03:44:06;;;;;;;3.70;2.10;;;;;;;1.73;85.90;99549.75;4946613;28;20126;-73
2023/11/30 03:46:32;;;;;;;2.40;1.90;;;;;;;1.76;85.44;99548.34;4962030;28;20026;-73
2023/11/30 03:48:57;;;;;;;2.70;1.55;;;;;;;1.55;85.95;99545.66;4962582;28;20414;-73
2023/11/30 03:51:25;;;;;;;1.52;1.42;;;;;;;1.65;86.30;99553.25;4964020;28;20022;-73
2023/11/30 03:53:51;;;;;;;2.85;1.83;;;;;;;1.57;86.76;99551.41;4976915;28;20110;-73
2023/11/30 03:56:17;;;;;;;1.20;1.10;;;;;;;1.47;87.54;99556.34;4961260;28;20509;-73
2023/11/30 03:58:42;;;;;;;2.60;1.13;;;;;;;1.45;88.03;99559.28;4961247;28;20526;-74
2023/11/30 04:01:08;;;;;;;2.25;1.75;;;;;;;1.42;88.44;99559.16;4955623;28;20063;-74
2023/11/30 04:03:33;;;;;;;6.38;2.83;;;;;;;1.55;88.25;99560.78;4958962;28;20037;-74
2023/11/30 04:05:59;;;;;;;1.45;1.38;;;;;;;1.53;88.07;99555.81;4960079;28;20031;-74
2023/11/30 04:08:24;;;;;;;2.85;2.25;;;;;;;1.55;88.22;99560.78;4968026;28;20038;-74
2023/11/30 04:10:50;;;;;;;2.63;1.88;;;;;;;1.66;87.07;99554.81;4959843;28;20034;-74
2023/11/30 04:13:16;;;;;;;1.58;1.48;;;;;;;1.64;86.85;99564.97;4963717;28;20037;-74
2023/11/30 04:15:41;;;;;;;3.60;2.13;;;;;;;1.67;86.66;99556.34;4982989;28;20097;-73
2023/11/30 04:18:09;;;;;;;2.03;1.58;;;;;;;1.62;86.69;99555.78;4942071;28;20031;-74
2023/11/30 04:20:35;;;;;;;2.78;2.08;;;;;;;1.57;87.55;99551.41;4964352;28;20026;-74
2023/11/30 04:23:00;;;;;;;3.80;2.42;;;;;;;1.66;86.90;99551.38;4958809;28;20035;-74
2023/11/30 04:25:26;;;;;;;2.47;1.45;;;;;;;1.69;86.77;99546.19;4937395;28;20037;-73
2023/11/30 04:27:52;;;;;;;2.13;1.83;;;;;;;1.67;86.69;99544.97;4959778;28;20601;-74
2023/11/30 04:30:18;;;;;;;1.48;1.08;;;;;;;1.65;87.14;99545.28;4960293;28;20022;-74
2023/11/30 04:32:43;;;;;;;3.63;2.80;;;;;;;1.65;87.21;99552.47;4961856;28;20030;-73
2023/11/30 04:35:09;;;;;;;3.90;1.70;;;;;;;1.77;86.14;99545.38;4959905;28;20485;-73
2023/11/30 04:37:34;;;;;;;5.07;2.30;;;;;;;1.71;85.73;99548.53;4978020;28;20027;-73
2023/11/30 04:39:59;;;;;;;1.45;1.33;;;;;;;1.70;86.27;99544.31;4976856;28;20783;-74
2023/11/30 04:42:25;;;;;;;3.15;1.95;;;;;;;1.62;86.85;99547.81;4959931;28;20034;-74
2023/11/30 04:44:50;;;;;;;1.83;1.33;;;;;;;1.72;86.44;99536.81;4966935;28;20400;-73
2023/11/30 04:47:19;;;;;;;2.47;1.85;;;;;;;1.70;86.51;99541.69;4967685;28;20041;-74
2023/11/30 04:49:45;;;;;;;3.90;2.25;;;;;;;1.68;86.91;99534.00;4957948;28;20121;-73
2023/11/30 04:52:10;;;;;;;2.53;1.90;;;;;;;1.68;87.29;99541.97;4963110;28;20641;-74
2023/11/30 04:54:36;;;;;;;6.45;2.38;;;;;;;1.69;87.22;99548.06;4959817;28;20034;-74
2023/11/30 04:57:02;;;;;;;2.60;2.17;;;;;;;1.72;87.47;99537.56;4942494;28;20074;-73
2023/11/30 04:59:28;;;;;;;2.90;1.50;;;;;;;1.71;87.66;99541.34;4979262;28;20038;-74
2023/11/30 05:01:53;;;;;;;1.92;1.40;;;;;;;1.76;87.54;99538.50;4958023;28;20035;-73
2023/11/30 05:04:19;;;;;;;2.78;1.45;;;;;;;1.77;87.14;99533.97;4981334;28;20034;-73
2023/11/30 05:06:44;;;;;;;3.30;2.20;;;;;;;1.69;86.92;99535.59;4976213;28;20045;-72
2023/11/30 05:09:09;;;;;;;3.30;1.40;;;;;;;1.65;87.76;99528.59;4963564;28;20417;-73
2023/11/30 05:11:35;;;;;;;2.72;1.58;;;;;;;1.62;87.36;99531.91;4958505;28;20089;-74
2023/11/30 05:14:01;;;;;;;1.27;1.05;;;;;;;1.59;86.80;99538.63;4944762;28;20034;-74
2023/11/30 05:16:26;;;;;;;4.28;1.70;;;;;;;1.60;86.66;99532.22;4975399;28;20037;-74
2023/11/30 05:18:51;;;;;;;4.95;2.55;;;;;;;1.61;86.27;99531.13;4959110;28;20042;-74
2023/11/30 05:21:17;;;;;;;3.05;1.92;;;;;;;1.54;85.86;99546.00;4959592;28;20693;-74
2023/11/30 05:23:42;;;;;;;5.90;2.90;;;;;;;1.44;86.31;99538.41;4961461;28;20483;-74
2023/11/30 05:26:08;;;;;;;1.42;1.33;;;;;;;1.38;86.33;99550.28;4970740;28;20469;-74
2023/11/30 05:28:33;;;;;;;1.73;1.63;;;;;;;1.27;86.39;99557.84;4974376;28;20030;-74
2023/11/30 05:30:59;;;;;;;3.13;2.60;;;;;;;1.26;87.09;99556.28;4957490;28;20030;-73
2023/11/30 05:33:27;;;;;;;4.07;2.80;;;;;;;1.34;86.36;99555.47;4956391;28;20045;-74
2023/11/30 05:35:52;;;;;;;2.67;2.33;;;;;;;1.35;86.45;99548.28;4937210;28;20093;-73
2023/11/30 05:38:18;;;;;;;1.05;1.05;;;;;;;1.28;87.13;99559.38;4975307;28;20046;-73
2023/11/30 05:40:44;;;;;;;2.72;2.25;;;;;;;1.37;86.40;99559.34;4971857;28;20457;-72
2023/11/30 05:43:09;;;;;;;2.95;2.60;;;;;;;1.42;85.95;99556.50;4954141;28;20038;-73
2023/11/30 05:45:35;;;;;;;1.70;1.33;;;;;;;1.41;85.30;99547.81;4953345;28;20034;-72
2023/11/30 05:48:00;;;;;;;8.65;2.30;;;;;;;1.28;85.25;99554.09;4954662;28;20027;-73
2023/11/30 05:50:25;;;;;;;2.92;2.17;;;;;;;1.17;85.83;99563.50;4967067;28;21023;-73
2023/11/30 05:52:51;;;;;;;3.95;2.42;;;;;;;1.13;86.36;99556.50;4954659;28;20046;-73
2023/11/30 05:55:17;;;;;;;4.30;3.03;;;;;;;1.20;85.09;99554.91;4972796;28;20511;-73
2023/11/30 05:57:42;;;;;;;4.18;1.75;;;;;;;0.93;85.83;99559.88;4961532;28;20129;-73
2023/11/30 06:00:10;;;;;;;2.63;2.42;;;;;;;0.81;85.88;99571.91;4949235;28;20039;-73
2023/11/30 06:02:39;;;;;;;4.35;2.80;;;;;;;0.87;86.51;99561.94;4975009;28;20187;-73
2023/11/30 06:05:05;;;;;;;4.90;2.08;;;;;;;0.93;85.71;99560.63;4977789;28;20031;-73
2023/11/30 06:07:30;;;;;;;1.55;1.45;;;;;;;0.95;85.51;99553.16;4956969;28;20042;-73
2023/11/30 06:09:55;;;;;;;4.63;2.08;;;;;;;0.88;85.28;99551.00;4957666;28;20114;-73
2023/11/30 06:12:21;;;;;;;5.18;3.15;;;;;;;0.86;85.73;99557.72;4962028;28;20561;-73
2023/11/30 06:14:47;;;;;;;2.22;1.88;;;;;;;0.80;85.67;99562.41;4971939;28;20030;-73
2023/11/30 06:17:12;;;;;;;2.33;1.45;;;;;;;0.80;85.42;99558.97;4964371;28;20038;-73
2023/11/30 06:19:39;;;;;;;3.65;2.80;;;;;;;0.82;85.07;99557.56;4954076;28;20031;-73
2023/11/30 06:22:04;;;;;;;2.47;1.88;;;;;;;0.85;84.01;99561.47;4973965;28;20023;-73
2023/11/30 06:24:29;;;;;;;3.55;3.13;;;;;;;0.78;85.13;99571.75;4980775;28;20031;-73
2023/11/30 06:26:55;;;;;;;1.58;1.48;;;;;;;0.77;84.96;99564.91;4958349;28;20031;-73
2023/11/30 06:29:21;;;;;;;4.30;3.05;;;;;;;0.76;84.81;99572.09;4940797;28;20050;-72
2023/11/30 06:31:46;;;;;;;3.50;2.60;;;;;;;0.70;84.62;99583.94;4973489;28;20046;-73
2023/11/30 06:34:12;;;;;;;3.20;2.03;;;;;;;0.60;84.84;99573.69;4983098;28;20418;-73
2023/11/30 06:36:37;;;;;;;2.65;1.70;;;;;;;0.57;85.20;99576.97;4960026;28;20497;-74
2023/11/30 06:39:03;;;;;;;4.30;2.70;;;;;;;0.60;85.35;99578.22;4963851;28;20038;-73
2023/11/30 06:41:28;;;;;;;5.30;1.90;;;;;;;0.57;85.12;99582.25;4963620;28;20030;-73
2023/11/30 06:43:54;;;;;;;3.83;1.83;;;;;;;0.66;84.77;99590.16;4963880;28;20027;-73
2023/11/30 06:46:20;;;;;;;1.90;1.67;;;;;;;0.63;84.64;99588.94;4977228;28;20383;-73
2023/11/30 06:48:47;;;;;;;3.28;1.90;;;;;;;0.59;84.71;99587.22;4978705;28;20038;-74
2023/11/30 06:51:13;;;;;;;2.30;2.10;;;;;;;0.61;83.88;99593.00;4977962;28;20038;-74
2023/11/30 06:53:39;;;;;;;2.60;2.38;;;;;;;0.57;84.06;99592.06;4979649;28;20394;-74
2023/11/30 06:56:11;;;;;;;5.13;3.35;;;;;;;0.58;83.41;99593.63;4976875;28;20525;-73
2023/11/30 06:58:37;;;;;;;4.32;1.83;;;;;;;0.57;83.34;99597.38;4984625;28;20034;-74
2023/11/30 07:01:12;;;;;;;1.30;1.13;;;;;;;0.56;83.25;99598.47;4952628;28;20073;-74
2023/11/30 07:03:37;;;;;;;2.85;2.45;;;;;;;0.54;83.90;99600.66;4957779;28;20042;-74
2023/11/30 07:06:03;;;;;;;1.48;1.38;;;;;;;0.51;83.70;99602.03;4957605;28;20041;-74
2023/11/30 07:08:28;;;;;;;2.45;2.10;;;;;;;0.48;83.87;99594.75;4982289;28;20114;-74
2023/11/30 07:10:54;;;;;;;2.45;2.25;;;;;;;0.49;83.44;99595.50;4964228;28;20106;-74
2023/11/30 07:13:20;;;;;;;4.00;2.33;;;;;;;0.42;83.13;99597.84;4955481;28;20037;-74
2023/11/30 07:15:45;;;;;;;2.03;1.75;;;;;;;0.39;83.82;99598.47;4960217;28;20453;-72
2023/11/30 07:18:13;;;;;;;1.48;1.38;;;;;;;0.41;83.92;99598.94;4954601;28;20514;-73
2023/11/30 07:20:39;;;;;;;2.25;1.85;;;;;;;0.39;84.10;99593.19;4976757;28;20030;-74
2023/11/30 07:23:10;;;;;;;2.67;2.28;;;;;;;0.37;84.01;99605.97;4959680;28;20093;-74
2023/11/30 07:25:36;;;;;;;1.75;1.63;;;;;;;0.36;84.09;99596.47;4975565;28;20034;-74
2023/11/30 07:28:02;;;;;;;3.88;2.42;;;;;;;0.40;83.87;99606.13;4977004;28;20038;-74
2023/11/30 07:30:28;;;;;;;2.40;1.30;;;;;;;0.46;82.62;99610.16;4957301;28;20026;-74
2023/11/30 07:32:56;;;;;;;1.40;1.27;;;;;;;0.34;83.21;99615.31;4959796;28;20117;-73
2023/11/30 07:35:22;;;;;;;3.53;2.00;;;;;;;0.36;83.21;99617.63;4973745;28;20383;-73
2023/11/30 07:37:48;;;;;;;2.25;2.05;;;;;;;0.36;83.36;99622.94;4976443;28;20089;-73
2023/11/30 07:40:14;;;;;;;2.38;2.17;;;;;;;0.30;82.74;99619.66;4960121;28;20022;-73
2023/11/30 07:42:39;;;;;;;1.92;1.60;;;;;;;0.31;83.29;99626.50;4972895;28;20037;-73
2023/11/30 07:45:05;;;;;;;3.03;2.72;;;;;;;0.36;83.43;99615.00;4962251;28;20030;-74
2023/11/30 07:47:31;;;;;;;3.38;2.58;;;;;;;0.36;83.07;99621.06;4979174;28;20643;-74
2023/11/30 07:49:56;;;;;;;3.70;2.25;;;;;;;0.36;83.28;99615.78;4941891;28;20113;-74
2023/11/30 07:52:22;;;;;;;2.47;2.08;;;;;;;0.40;82.93;99621.22;4977287;28;20122;-74
2023/11/30 07:54:47;;;;;;;1.77;1.13;;;;;;;0.43;82.58;99612.63;4974995;28;20038;-74
2023/11/30 07:57:13;;;;;;;3.80;1.63;;;;;;;0.45;82.30;99616.53;4963773;28;20560;-74
2023/11/30 07:59:38;;;;;;;1.45;1.27;;;;;;;0.44;82.39;99622.16;4978316;28;20042;-74
2023/11/30 08:02:04;;;;;;;2.17;1.85;;;;;;;0.43;82.97;99634.59;4977171;28;20030;-74
2023/11/30 08:04:32;;;;;;;4.38;1.70;;;;;;;0.34;83.25;99623.25;4962296;28;20034;-74
2023/11/30 08:06:57;;;;;;;1.50;1.40;;;;;;;0.36;83.49;99622.94;4962149;28;20034;-74
2023/11/30 08:09:23;;;;;;;3.55;2.30;;;;;;;0.44;83.08;99627.44;4961850;28;20617;-74
2023/11/30 08:11:49;;;;;;;2.13;1.52;;;;;;;0.44;83.14;99628.22;4945364;28;20035;-74
2023/11/30 08:14:15;;;;;;;0.73;0.70;;;;;;;0.46;83.22;99623.41;4974786;28;20033;-74
2023/11/30 08:16:40;;;;;;;3.38;2.45;;;;;;;0.50;82.54;99628.84;4961094;28;20026;-74
2023/11/30 08:19:05;;;;;;;4.57;1.83;;;;;;;0.46;83.04;99622.63;4985241;28;20043;-74
2023/11/30 08:21:31;;;;;;;2.53;1.98;;;;;;;0.55;83.32;99626.03;4958177;28;20049;-74
2023/11/30 08:23:56;;;;;;;1.90;1.52;;;;;;;0.58;83.48;99628.06;4945879;28;20506;-74
2023/11/30 08:26:22;;;;;;;3.22;2.05;;;;;;;0.62;83.48;99629.00;4984195;28;20552;-74
2023/11/30 08:28:49;;;;;;;4.70;2.42;;;;;;;0.68;83.02;99630.34;4974239;28;20042;-74
2023/11/30 08:31:14;;;;;;;1.27;1.17;;;;;;;0.69;83.62;99626.63;4959266;28;20056;-74
2023/11/30 08:33:40;;;;;;;5.10;2.28;;;;;;;0.65;84.02;99631.00;4951398;28;20355;-73
2023/11/30 08:36:08;;;;;;;2.78;2.55;;;;;;;0.71;84.30;99629.75;4945531;28;20054;-74
2023/11/30 08:38:37;;;;;;;2.63;1.73;;;;;;;0.70;83.95;99628.97;4978514;28;20030;-74
2023/11/30 08:41:03;;;;;;;4.30;2.10;;;;;;;0.74;84.86;99634.41;4961705;28;20061;-74
2023/11/30 08:43:29;;;;;;;2.45;1.58;;;;;;;0.83;84.62;99653.72;4958698;28;20556;-74
2023/11/30 08:45:55;;;;;;;1.35;1.25;;;;;;;0.86;84.48;99645.13;4963901;28;20035;-74
2023/11/30 08:48:20;;;;;;;2.35;1.85;;;;;;;0.93;84.07;99652.63;4963731;28;20410;-74
2023/11/30 08:50:46;;;;;;;2.72;1.95;;;;;;;0.82;84.96;99652.94;4987750;28;20108;-73
2023/11/30 08:53:12;;;;;;;2.85;2.60;;;;;;;0.96;84.57;99652.75;4977023;28;20548;-73
2023/11/30 08:55:38;;;;;;;4.70;1.73;;;;;;;1.01;84.66;99647.28;4982367;28;20119;-74
2023/11/30 08:58:04;;;;;;;1.98;1.80;;;;;;;1.14;83.85;99643.69;4967619;28;20022;-74
2023/11/30 09:00:30;;;;;;;1.67;1.55;;;;;;;1.10;84.45;99642.75;4976422;28;20064;-74
2023/11/30 09:02:56;;;;;;;1.58;1.48;;;;;;;1.13;85.35;99658.00;4981388;28;20453;-74
2023/11/30 09:05:23;;;;;;;6.22;3.25;;;;;;;1.24;84.22;99658.44;4943965;28;20027;-74
2023/11/30 09:07:50;;;;;;;3.25;1.90;;;;;;;1.14;85.26;99651.63;4983304;28;20049;-74
2023/11/30 09:10:18;;;;;;;3.30;1.92;;;;;;;1.27;85.58;99650.63;4979207;28;20034;-74
2023/11/30 09:12:44;;;;;;;2.65;2.08;;;;;;;1.45;85.15;99651.34;4977036;28;20043;-74
2023/11/30 09:15:10;;;;;;;3.75;1.80;;;;;;;1.48;85.05;99654.13;4981522;28;20508;-74
2023/11/30 09:17:36;;;;;;;8.27;2.08;;;;;;;1.50;84.49;99646.63;4958372;28;20081;-74
2023/11/30 09:20:03;;;;;;;1.35;1.25;;;;;;;1.56;83.78;99647.22;4956874;28;20026;-74
2023/11/30 09:22:28;;;;;;;1.63;1.27;;;;;;;1.45;85.10;99646.81;4974932;28;20042;-74
2023/11/30 09:24:54;;;;;;;3.78;2.40;;;;;;;1.52;85.31;99648.97;4980223;28;20077;-74
2023/11/30 09:27:19;;;;;;;2.53;1.58;;;;;;;1.56;85.23;99644.59;4973351;28;20031;-74
2023/11/30 09:29:45;;;;;;;2.97;2.08;;;;;;;1.48;85.66;99654.13;4962061;28;20101;-74
2023/11/30 09:32:10;;;;;;;3.42;2.28;;;;;;;1.57;85.60;99648.78;4955156;28;20588;-74
2023/11/30 09:34:36;;;;;;;3.90;2.35;;;;;;;1.64;85.46;99655.16;4946173;28;20094;-74
2023/11/30 09:37:01;;;;;;;2.78;1.50;;;;;;;1.71;86.21;99652.78;4974867;28;20035;-73
2023/11/30 09:39:27;;;;;;;8.85;1.52;;;;;;;1.87;85.51;99649.56;4969629;28;20118;-74
2023/11/30 09:41:52;;;;;;;1.63;1.45;;;;;;;1.92;85.03;99652.78;4982662;28;20047;-74
2023/11/30 09:44:18;;;;;;;3.13;2.47;;;;;;;1.91;84.93;99645.16;4977786;28;20121;-73
2023/11/30 09:46:44;;;;;;;2.08;1.90;;;;;;;1.77;85.69;99638.22;4979255;28;20077;-74
2023/11/30 09:49:10;;;;;;;3.17;2.33;;;;;;;1.90;86.02;99633.00;4960025;28;20047;-74
2023/11/30 09:51:39;;;;;;;12.90;3.38;;;;;;;2.06;84.12;99640.06;4957164;28;20041;-74
2023/11/30 09:54:04;;;;;;;3.78;1.67;;;;;;;1.90;84.61;99640.97;4956571;28;20518;-74
2023/11/30 09:56:30;;;;;;;3.10;2.10;;;;;;;1.86;85.69;99648.00;4956354;28;20041;-74
2023/11/30 09:59:01;;;;;;;2.38;1.38;;;;;;;1.91;86.57;99635.34;4938459;28;20037;-74
2023/11/30 10:01:27;;;;;;;;;;;;;;;2.04;86.29;99633.50;4964308;28;20132;-74
2023/11/30 10:03:52;;;;;;;8.98;2.67;;;;;;;2.05;86.16;99632.44;4963333;28;19914;-74
2023/11/30 10:06:18;;;;;;;2.92;2.58;;;;;;;2.10;86.35;99640.97;4976408;28;20035;-74
2023/11/30 10:08:43;;;;;;;5.60;2.40;;;;;;;2.13;86.38;99634.25;4985257;28;20035;-74
2023/11/30 10:11:10;;;;;;;5.53;3.22;;;;;;;2.09;86.17;99628.78;4972873;28;20039;-73
2023/11/30 10:13:36;;;;;;;2.38;2.10;;;;;;;2.17;86.74;99633.25;4975218;28;20089;-74
2023/11/30 10:16:05;;;;;;;3.03;1.85;;;;;;;2.23;86.28;99625.88;4978494;28;20030;-74
2023/11/30 10:18:33;;;;;;;1.67;1.58;;;;;;;2.21;86.62;99633.38;4959726;28;20058;-74
2023/11/30 10:20:59;;;;;;;2.28;1.75;;;;;;;2.23;86.27;99625.88;4959703;28;20514;-74
2023/11/30 10:23:24;;;;;;;2.72;1.70;;;;;;;2.34;85.72;99625.16;4972301;28;20410;-74
2023/11/30 10:25:51;;;;;;;7.50;3.10;;;;;;;2.31;85.10;99636.44;4974414;28;20037;-74
2023/11/30 10:28:20;;;;;;;1.70;1.55;;;;;;;2.35;84.55;99623.28;4975760;28;20042;-74
2023/11/30 10:30:46;;;;;;;4.78;1.98;;;;;;;2.41;84.32;99614.00;4960438;28;20092;-74
2023/11/30 10:33:14;;;;;;;5.00;3.03;;;;;;;2.25;84.69;99619.16;4972019;28;20437;-74
2023/11/30 10:35:44;;;;;;;4.07;1.77;;;;;;;2.28;85.48;99629.13;4950999;28;20035;-74
2023/11/30 10:38:26;;;;;;;1.50;1.40;;;;;;;2.33;85.40;99609.56;4946968;28;20028;-73
2023/11/30 10:40:55;;;;;;;2.67;1.60;;;;;;;2.31;85.35;99609.09;4952733;28;20038;-73
2023/11/30 10:43:24;;;;;;;3.42;1.90;;;;;;;2.36;84.25;99608.91;4972069;28;20046;-74
2023/11/30 10:45:52;;;;;;;2.55;2.10;;;;;;;2.35;84.51;99607.34;4946120;28;20030;-74
2023/11/30 10:48:20;;;;;;;2.95;1.77;;;;;;;2.37;84.45;99603.28;4937740;28;20093;-74
2023/11/30 10:50:47;;;;;;;4.95;2.10;;;;;;;2.39;83.64;99598.41;4971382;28;20055;-74
2023/11/30 10:53:31;;;;;;;2.45;1.23;;;;;;;2.18;84.36;99605.63;4961270;28;20026;-74
2023/11/30 10:55:58;;;;;;;1.42;1.27;;;;;;;2.22;84.42;99609.19;4951231;28;20549;-74
2023/11/30 10:58:27;;;;;;;2.90;2.08;;;;;;;2.26;83.51;99596.81;4959627;28;20034;-74
2023/11/30 11:00:57;;;;;;;1.65;1.20;;;;;;;2.17;84.09;99598.75;4975288;28;20038;-74
2023/11/30 11:03:25;;;;;;;5.18;1.65;;;;;;;2.30;84.41;99595.06;4973685;28;20034;-74
2023/11/30 11:05:51;;;;;;;1.45;1.25;;;;;;;2.33;83.86;99593.63;4962597;28;20043;-74
2023/11/30 11:08:17;;;;;;;5.22;2.45;;;;;;;2.31;83.88;99593.16;4954524;28;20022;-74
2023/11/30 11:10:47;;;;;;;1.48;1.27;;;;;;;2.22;85.32;99597.78;4974010;28;20030;-75
2023/11/30 11:13:29;;;;;;;4.05;2.15;;;;;;;2.26;86.05;99585.41;4961437;28;20034;-71
2023/11/30 11:15:59;;;;;;;3.63;1.30;;;;;;;2.35;85.84;99588.75;4951395;28;20030;-74
2023/11/30 11:18:32;;;;;;;3.15;1.65;;;;;;;2.45;83.80;99583.03;4978418;28;20486;-74
2023/11/30 11:20:59;;;;;;;3.15;1.60;;;;;;;2.37;83.72;99589.22;4980674;28;20102;-74
2023/11/30 11:23:37;;;;;;;1.55;1.45;;;;;;;2.32;85.08;99586.75;4971695;28;20453;-74
2023/11/30 11:26:03;;;;;;;2.28;1.70;;;;;;;2.29;85.92;99582.88;4957505;28;20054;-74
2023/11/30 11:28:30;;;;;;;3.13;2.35;;;;;;;2.29;86.20;99582.09;4975066;28;20059;-74
2023/11/30 11:30:55;;;;;;;2.72;1.73;;;;;;;2.33;86.63;99583.00;4971326;28;20042;-75
2023/11/30 11:33:25;;;;;;;4.25;2.35;;;;;;;2.38;86.01;99588.13;4964998;28;20045;-74
2023/11/30 11:35:53;;;;;;;3.17;1.92;;;;;;;2.36;86.27;99587.66;4972678;28;20025;-72